Time;durP1;ratioP1;P1;durP2;ratioP2;P2;SDS_P1;SDS_P2;PMS_P1;PMS_P2;Temp;Humidity;BMP_temperature;BMP_pressure;BME280_temperature;BME280_humidity;BME280_pressure;Samples;Min_cycle;Max_cycle;Signal;HPM_P1;HPM_P2
2023/05/13 00:01:27;;;;;;;1.05;1.05;;;;;;;;;;5016345;28;58832;-70
2023/05/13 00:03:52;;;;;;;0.70;0.70;;;;;;;;;;5018344;28;58595;-70
2023/05/13 00:06:17;;;;;;;0.70;0.70;;;;;;;;;;5018541;28;58829;-69
2023/05/13 00:08:42;;;;;;;0.70;0.70;;;;;;;;;;5013179;28;59032;-70
2023/05/13 00:11:07;;;;;;;0.82;0.82;;;;;;;;;;5024204;28;58575;-71
2023/05/13 00:13:33;;;;;;;0.95;0.95;;;;;;;;;;5019346;28;58854;-70
2023/05/13 00:15:58;;;;;;;1.03;1.00;;;;;;;;;;5017348;28;58379;-71
2023/05/13 00:18:23;;;;;;;0.70;0.70;;;;;;;;;;5022390;27;59239;-70
2023/05/13 00:20:48;;;;;;;0.70;0.70;;;;;;;;;;5020144;28;58396;-70
2023/05/13 00:23:13;;;;;;;1.23;1.13;;;;;;;;;;5023886;28;58677;-71
2023/05/13 00:25:40;;;;;;;0.98;0.98;;;;;;;;;;5015807;28;58372;-71
2023/05/13 00:28:05;;;;;;;1.23;1.13;;;;;;;;;;5019601;28;58663;-71
2023/05/13 00:30:30;;;;;;;1.10;1.07;;;;;;;;;;5020694;27;58852;-71
2023/05/13 00:32:55;;;;;;;1.05;0.95;;;;;;;;;;5020897;28;58739;-71
2023/05/13 00:35:20;;;;;;;1.10;0.80;;;;;;;;;;5025362;28;58391;-71
2023/05/13 00:37:46;;;;;;;0.90;0.85;;;;;;;;;;5016951;27;59139;-70
2023/05/13 00:40:21;;;;;;;1.15;1.08;;;;;;;;;;5018562;27;58449;-70
2023/05/13 00:42:46;;;;;;;0.80;0.80;;;;;;;;;;5022059;27;58684;-71
2023/05/13 00:45:12;;;;;;;0.68;0.68;;;;;;;;;;5022335;28;58734;-70
2023/05/13 00:47:40;;;;;;;0.80;0.80;;;;;;;;;;5016764;27;58502;-70
2023/05/13 00:50:05;;;;;;;;;;;;;;;;;;5016655;28;58684;-68
2023/05/13 00:52:30;;;;;;;0.70;0.70;;;;;;;;;;5018331;28;58349;-70
2023/05/13 00:54:56;;;;;;;0.87;0.87;;;;;;;;;;5020736;28;58817;-70
2023/05/13 00:57:21;;;;;;;0.80;0.80;;;;;;;;;;5020766;28;58719;-71
2023/05/13 00:59:47;;;;;;;1.07;1.07;;;;;;;;;;5016856;28;58784;-70
2023/05/13 01:02:15;;;;;;;1.13;1.03;;;;;;;;;;5022715;28;58489;-70
2023/05/13 01:04:49;;;;;;;1.17;1.10;;;;;;;;;;5014545;28;58634;-70
2023/05/13 01:07:27;;;;;;;1.40;1.30;;;;;;;;;;5016655;28;58573;-71
2023/05/13 01:10:11;;;;;;;0.85;0.85;;;;;;;;;;5016618;28;59093;-71
2023/05/13 01:12:42;;;;;;;0.90;0.90;;;;;;;;;;5019254;27;58355;-70
2023/05/13 01:15:09;;;;;;;0.98;0.98;;;;;;;;;;5016727;27;58350;-71
2023/05/13 01:17:41;;;;;;;1.00;1.00;;;;;;;;;;5018589;28;59224;-70
2023/05/13 01:20:07;;;;;;;0.82;0.82;;;;;;;;;;5015469;28;58945;-70
2023/05/13 01:22:32;;;;;;;0.95;0.95;;;;;;;;;;5013530;28;59311;-71
2023/05/13 01:24:57;;;;;;;0.87;0.87;;;;;;;;;;5021930;27;58889;-71
2023/05/13 01:27:22;;;;;;;0.80;0.80;;;;;;;;;;5014251;28;58430;-70
2023/05/13 01:29:48;;;;;;;1.23;1.13;;;;;;;;;;5019961;27;58942;-71
2023/05/13 01:32:14;;;;;;;1.10;1.10;;;;;;;;;;5016913;28;58458;-70
2023/05/13 01:34:39;;;;;;;0.95;0.95;;;;;;;;;;5019357;27;58352;-70
2023/05/13 01:37:05;;;;;;;1.13;1.13;;;;;;;;;;5016762;28;58827;-69
2023/05/13 01:39:30;;;;;;;0.88;0.88;;;;;;;;;;5014819;27;58473;-71
2023/05/13 01:41:56;;;;;;;0.90;0.90;;;;;;;;;;5017244;27;58891;-69
2023/05/13 01:44:21;;;;;;;1.00;1.00;;;;;;;;;;5019943;28;58454;-70
2023/05/13 01:46:47;;;;;;;1.45;1.35;;;;;;;;;;5015103;27;58358;-71
2023/05/13 01:49:12;;;;;;;0.73;0.73;;;;;;;;;;5016488;28;58841;-69
2023/05/13 01:51:39;;;;;;;0.80;0.80;;;;;;;;;;5014431;28;58847;-70
2023/05/13 01:54:04;;;;;;;0.85;0.85;;;;;;;;;;5019922;28;58512;-71
2023/05/13 01:56:29;;;;;;;0.97;0.97;;;;;;;;;;5019666;27;58330;-70
2023/05/13 01:58:54;;;;;;;1.23;1.23;;;;;;;;;;5016974;28;58518;-70
2023/05/13 02:01:19;;;;;;;0.82;0.82;;;;;;;;;;5020178;28;58694;-71
2023/05/13 02:03:44;;;;;;;0.90;0.90;;;;;;;;;;5015387;28;58445;-70
2023/05/13 02:06:10;;;;;;;0.80;0.80;;;;;;;;;;5020656;27;58513;-71
2023/05/13 02:08:35;;;;;;;0.77;0.77;;;;;;;;;;5017935;28;59039;-70
2023/05/13 02:11:00;;;;;;;1.08;1.00;;;;;;;;;;5019203;28;58318;-70
2023/05/13 02:13:25;;;;;;;1.07;1.07;;;;;;;;;;5010743;28;58576;-70
2023/05/13 02:15:50;;;;;;;0.90;0.90;;;;;;;;;;5021422;28;58311;-70
2023/05/13 02:18:16;;;;;;;0.93;0.93;;;;;;;;;;5016844;28;58874;-71
2023/05/13 02:20:41;;;;;;;1.37;1.27;;;;;;;;;;5020980;27;58747;-70
2023/05/13 02:23:06;;;;;;;0.85;0.85;;;;;;;;;;5020546;28;59343;-71
2023/05/13 02:25:32;;;;;;;1.05;1.05;;;;;;;;;;5011749;28;58811;-71
2023/05/13 02:27:57;;;;;;;1.20;1.20;;;;;;;;;;5014019;28;58444;-71
2023/05/13 02:30:25;;;;;;;1.20;1.20;;;;;;;;;;5017388;28;58712;-71
2023/05/13 02:32:50;;;;;;;0.93;0.93;;;;;;;;;;5017698;28;58451;-70
2023/05/13 02:35:16;;;;;;;0.90;0.90;;;;;;;;;;5017373;28;59980;-70
2023/05/13 02:37:41;;;;;;;0.85;0.85;;;;;;;;;;5018543;27;58810;-70
2023/05/13 02:40:06;;;;;;;1.17;1.17;;;;;;;;;;5014694;28;58934;-70
2023/05/13 02:42:31;;;;;;;0.93;0.93;;;;;;;;;;5017887;27;58746;-71
2023/05/13 02:44:57;;;;;;;1.08;1.08;;;;;;;;;;5012819;28;58433;-70
2023/05/13 02:47:22;;;;;;;0.93;0.93;;;;;;;;;;5013698;28;58759;-70
2023/05/13 02:49:47;;;;;;;1.20;1.20;;;;;;;;;;5015912;28;58853;-70
2023/05/13 02:52:12;;;;;;;0.90;0.90;;;;;;;;;;5015647;28;58636;-71
2023/05/13 02:54:37;;;;;;;1.07;1.07;;;;;;;;;;5018648;28;58661;-70
2023/05/13 02:57:03;;;;;;;1.40;1.23;;;;;;;;;;5014978;27;58987;-67
2023/05/13 02:59:28;;;;;;;1.10;1.10;;;;;;;;;;5019665;28;58375;-70
2023/05/13 03:01:53;;;;;;;1.50;1.40;;;;;;;;;;5014912;28;58590;-71
2023/05/13 03:04:18;;;;;;;1.35;0.90;;;;;;;;;;5016204;28;60747;-70
2023/05/13 03:06:43;;;;;;;0.85;0.85;;;;;;;;;;5014351;28;58976;-71
2023/05/13 03:09:08;;;;;;;1.25;1.15;;;;;;;;;;5019556;28;58754;-70
2023/05/13 03:11:34;;;;;;;1.17;1.17;;;;;;;;;;5016465;28;58858;-69
2023/05/13 03:13:59;;;;;;;0.70;0.70;;;;;;;;;;5017220;28;58410;-70
2023/05/13 03:16:25;;;;;;;0.93;0.93;;;;;;;;;;5015813;28;58522;-71
2023/05/13 03:18:50;;;;;;;1.10;1.10;;;;;;;;;;5017268;28;58728;-70
2023/05/13 03:21:16;;;;;;;0.87;0.87;;;;;;;;;;5015021;28;58777;-71
2023/05/13 03:23:41;;;;;;;1.03;1.03;;;;;;;;;;5017756;28;58857;-71
2023/05/13 03:26:06;;;;;;;0.70;0.70;;;;;;;;;;5017022;28;58434;-70
2023/05/13 03:28:31;;;;;;;1.10;1.10;;;;;;;;;;5017598;28;58666;-70
2023/05/13 03:30:56;;;;;;;0.77;0.77;;;;;;;;;;5013446;28;58800;-71
2023/05/13 03:33:22;;;;;;;1.85;1.23;;;;;;;;;;5018627;28;58840;-71
2023/05/13 03:35:48;;;;;;;0.90;0.90;;;;;;;;;;5016797;28;60062;-69
2023/05/13 03:38:13;;;;;;;1.13;1.02;;;;;;;;;;5014872;28;58426;-69
2023/05/13 03:40:38;;;;;;;1.00;1.00;;;;;;;;;;5014013;28;58387;-71
2023/05/13 03:43:03;;;;;;;0.77;0.77;;;;;;;;;;5014457;28;58814;-70
2023/05/13 03:45:29;;;;;;;1.00;0.90;;;;;;;;;;5014837;28;58935;-67
2023/05/13 03:47:54;;;;;;;2.08;1.45;;;;;;;;;;5020955;28;58693;-71
2023/05/13 03:50:19;;;;;;;0.90;0.90;;;;;;;;;;5015956;28;59659;-70
2023/05/13 03:52:45;;;;;;;1.15;1.10;;;;;;;;;;5016328;27;58465;-71
2023/05/13 03:55:10;;;;;;;1.08;1.00;;;;;;;;;;5011425;28;58921;-71
2023/05/13 03:57:35;;;;;;;1.17;1.13;;;;;;;;;;5053056;22;58804;-70
2023/05/13 04:00:00;;;;;;;1.30;1.20;;;;;;;;;;5030678;28;60054;-70
2023/05/13 04:02:25;;;;;;;1.33;1.20;;;;;;;;;;5032483;28;58698;-70
2023/05/13 04:04:50;;;;;;;1.17;1.17;;;;;;;;;;5033970;28;58437;-71
2023/05/13 04:07:15;;;;;;;0.77;0.77;;;;;;;;;;5030391;28;58881;-71
2023/05/13 04:09:41;;;;;;;1.15;1.05;;;;;;;;;;5035527;28;59006;-67
2023/05/13 04:12:06;;;;;;;0.80;0.80;;;;;;;;;;5032894;28;58172;-71
2023/05/13 04:14:31;;;;;;;0.93;0.87;;;;;;;;;;5034086;28;58945;-68
2023/05/13 04:16:56;;;;;;;1.00;1.00;;;;;;;;;;5033590;28;58317;-71
2023/05/13 04:19:21;;;;;;;1.10;1.05;;;;;;;;;;5032772;28;58166;-71
2023/05/13 04:21:46;;;;;;;0.88;0.88;;;;;;;;;;5030517;28;58824;-71
2023/05/13 04:24:11;;;;;;;0.88;0.88;;;;;;;;;;5032906;28;58350;-71
2023/05/13 04:26:37;;;;;;;1.52;1.25;;;;;;;;;;5031263;28;58752;-69
2023/05/13 04:29:02;;;;;;;0.80;0.80;;;;;;;;;;5031819;28;58784;-71
2023/05/13 04:31:27;;;;;;;0.93;0.93;;;;;;;;;;5029226;28;58910;-70
2023/05/13 04:33:52;;;;;;;0.90;0.90;;;;;;;;;;5024534;28;60098;-71
2023/05/13 04:36:17;;;;;;;1.30;1.20;;;;;;;;;;5022338;28;58842;-70
2023/05/13 04:38:43;;;;;;;0.90;0.90;;;;;;;;;;5026388;28;58712;-70
2023/05/13 04:41:08;;;;;;;0.90;0.90;;;;;;;;;;5028312;28;58727;-70
2023/05/13 04:43:33;;;;;;;1.30;1.20;;;;;;;;;;5022254;28;58925;-70
2023/05/13 04:45:58;;;;;;;1.10;1.10;;;;;;;;;;5025239;28;58467;-71
2023/05/13 04:48:26;;;;;;;0.87;0.87;;;;;;;;;;5026488;28;59378;-70
2023/05/13 04:50:51;;;;;;;;;;;;;;;;;;5025662;28;58655;-71
2023/05/13 04:53:16;;;;;;;1.17;1.02;;;;;;;;;;5026538;28;58438;-71
2023/05/13 04:55:42;;;;;;;1.20;1.20;;;;;;;;;;5025254;28;58625;-70
2023/05/13 04:58:07;;;;;;;1.17;1.17;;;;;;;;;;5024897;28;58780;-67
2023/05/13 05:00:32;;;;;;;1.33;1.23;;;;;;;;;;5024317;28;58724;-71
2023/05/13 05:02:57;;;;;;;0.90;0.90;;;;;;;;;;5022227;28;60127;-67
2023/05/13 05:05:22;;;;;;;1.00;1.00;;;;;;;;;;5030073;28;59046;-69
2023/05/13 05:07:48;;;;;;;1.20;1.10;;;;;;;;;;5026125;28;58716;-70
2023/05/13 05:10:14;;;;;;;0.97;0.97;;;;;;;;;;5027673;28;58786;-70
2023/05/13 05:12:39;;;;;;;0.95;0.95;;;;;;;;;;5024036;28;59078;-67
2023/05/13 05:15:05;;;;;;;1.00;0.90;;;;;;;;;;5027308;28;58519;-65
2023/05/13 05:17:31;;;;;;;0.93;0.93;;;;;;;;;;5021455;28;59334;-65
2023/05/13 05:19:56;;;;;;;2.90;1.10;;;;;;;;;;5022480;28;58758;-71
2023/05/13 05:22:22;;;;;;;0.97;0.97;;;;;;;;;;5020167;28;59127;-71
2023/05/13 05:24:47;;;;;;;0.90;0.90;;;;;;;;;;5025080;28;58722;-70
2023/05/13 05:27:12;;;;;;;1.10;1.10;;;;;;;;;;5023915;28;58758;-71
2023/05/13 05:29:37;;;;;;;1.52;1.40;;;;;;;;;;5027856;28;58827;-71
2023/05/13 05:32:02;;;;;;;1.10;1.10;;;;;;;;;;5025916;28;59265;-71
2023/05/13 05:34:27;;;;;;;1.00;1.00;;;;;;;;;;5027392;28;58342;-71
2023/05/13 05:36:53;;;;;;;1.10;1.10;;;;;;;;;;5030943;28;58685;-71
2023/05/13 05:39:19;;;;;;;1.10;0.98;;;;;;;;;;5026792;28;59234;-67
2023/05/13 05:41:45;;;;;;;0.90;0.90;;;;;;;;;;5030382;28;59177;-71
2023/05/13 05:44:12;;;;;;;1.30;1.20;;;;;;;;;;5032645;28;58382;-71
2023/05/13 05:46:37;;;;;;;0.93;0.90;;;;;;;;;;5027109;28;59857;-71
2023/05/13 05:49:02;;;;;;;1.05;0.98;;;;;;;;;;5029243;28;58709;-72
2023/05/13 05:51:27;;;;;;;1.47;1.20;;;;;;;;;;5026904;28;59136;-71
2023/05/13 05:53:52;;;;;;;1.13;1.13;;;;;;;;;;5032632;28;58814;-71
2023/05/13 05:56:18;;;;;;;0.95;0.90;;;;;;;;;;5034375;28;58300;-71
2023/05/13 05:58:43;;;;;;;1.08;1.02;;;;;;;;;;5032122;28;58447;-72
2023/05/13 06:01:08;;;;;;;0.93;0.90;;;;;;;;;;5031118;28;58736;-71
2023/05/13 06:03:34;;;;;;;0.93;0.93;;;;;;;;;;5032616;28;58855;-71
2023/05/13 06:05:59;;;;;;;1.00;1.00;;;;;;;;;;5031726;28;58822;-71
2023/05/13 06:08:28;;;;;;;1.00;1.00;;;;;;;;;;5034530;28;58524;-72
2023/05/13 06:10:54;;;;;;;1.30;1.20;;;;;;;;;;5031866;28;58586;-71
2023/05/13 06:13:19;;;;;;;1.17;1.17;;;;;;;;;;5035598;28;58539;-72
2023/05/13 06:15:44;;;;;;;1.17;1.17;;;;;;;;;;5034129;28;58484;-72
2023/05/13 06:18:09;;;;;;;1.00;1.00;;;;;;;;;;5030176;28;58754;-70
2023/05/13 06:20:34;;;;;;;1.50;1.40;;;;;;;;;;5033311;28;59140;-72
2023/05/13 06:23:00;;;;;;;1.50;1.40;;;;;;;;;;5032440;28;58182;-72
2023/05/13 06:25:25;;;;;;;0.80;0.80;;;;;;;;;;5032300;28;58747;-70
2023/05/13 06:27:50;;;;;;;1.50;1.40;;;;;;;;;;5032443;28;58764;-71
2023/05/13 06:30:15;;;;;;;1.35;1.25;;;;;;;;;;5031374;28;58690;-71
2023/05/13 06:32:40;;;;;;;1.00;1.00;;;;;;;;;;5033903;28;58742;-71
2023/05/13 06:35:06;;;;;;;0.90;0.90;;;;;;;;;;5035959;28;58869;-70
2023/05/13 06:37:31;;;;;;;1.05;1.05;;;;;;;;;;5029693;28;58861;-66
2023/05/13 06:39:57;;;;;;;1.00;1.00;;;;;;;;;;5028926;28;58822;-69
2023/05/13 06:42:22;;;;;;;1.52;1.42;;;;;;;;;;5027136;28;58600;-71
2023/05/13 06:44:47;;;;;;;1.20;1.20;;;;;;;;;;5025481;28;58755;-70
2023/05/13 06:47:14;;;;;;;1.20;1.10;;;;;;;;;;5027267;28;58878;-71
2023/05/13 06:49:39;;;;;;;1.50;1.10;;;;;;;;;;5030827;28;58887;-71
2023/05/13 06:52:05;;;;;;;1.20;1.20;;;;;;;;;;5023631;28;58944;-68
2023/05/13 06:54:30;;;;;;;0.85;0.85;;;;;;;;;;5022958;28;58394;-70
2023/05/13 06:56:56;;;;;;;0.90;0.90;;;;;;;;;;5024398;28;59257;-68
2023/05/13 06:59:21;;;;;;;1.20;1.10;;;;;;;;;;5027619;28;58776;-69
2023/05/13 07:01:46;;;;;;;0.93;0.93;;;;;;;;;;5027980;28;58448;-71
2023/05/13 07:04:12;;;;;;;0.83;0.83;;;;;;;;;;5020116;28;59110;-71
2023/05/13 07:06:37;;;;;;;1.00;0.90;;;;;;;;;;5026628;28;58884;-71
2023/05/13 07:09:02;;;;;;;1.05;1.05;;;;;;;;;;5024919;28;61316;-70
2023/05/13 07:11:27;;;;;;;0.85;0.85;;;;;;;;;;5025622;28;58775;-68
2023/05/13 07:13:53;;;;;;;0.93;0.93;;;;;;;;;;5025681;28;58778;-70
2023/05/13 07:16:18;;;;;;;0.90;0.90;;;;;;;;;;5028080;28;58649;-71
2023/05/13 07:18:43;;;;;;;1.00;1.00;;;;;;;;;;5024783;28;58944;-70
2023/05/13 07:21:08;;;;;;;1.33;1.20;;;;;;;;;;5031262;28;58972;-72
2023/05/13 07:23:34;;;;;;;0.97;0.97;;;;;;;;;;5027966;28;58994;-70
2023/05/13 07:25:59;;;;;;;1.00;1.00;;;;;;;;;;5025423;28;58582;-70
2023/05/13 07:28:25;;;;;;;0.98;0.98;;;;;;;;;;5029950;28;58801;-66
2023/05/13 07:30:52;;;;;;;1.13;1.13;;;;;;;;;;5033846;28;58376;-70
2023/05/13 07:33:17;;;;;;;1.30;1.20;;;;;;;;;;5025473;28;58443;-68
2023/05/13 07:35:42;;;;;;;0.83;0.83;;;;;;;;;;5027528;28;58743;-66
2023/05/13 07:38:08;;;;;;;1.48;1.38;;;;;;;;;;5025699;28;58393;-71
2023/05/13 07:40:33;;;;;;;0.90;0.90;;;;;;;;;;5023768;28;58409;-69
2023/05/13 07:42:58;;;;;;;1.00;1.00;;;;;;;;;;5022713;28;58963;-71
2023/05/13 07:45:23;;;;;;;0.70;0.70;;;;;;;;;;5026507;28;58435;-71
2023/05/13 07:47:48;;;;;;;1.52;1.42;;;;;;;;;;5032462;28;58708;-71
2023/05/13 07:50:14;;;;;;;0.82;0.82;;;;;;;;;;5028723;28;58939;-72
2023/05/13 07:52:39;;;;;;;0.70;0.70;;;;;;;;;;5028961;28;58446;-71
2023/05/13 07:55:05;;;;;;;0.90;0.90;;;;;;;;;;5024694;28;58306;-71
2023/05/13 07:57:30;;;;;;;0.77;0.77;;;;;;;;;;5031881;28;58450;-64
2023/05/13 07:59:55;;;;;;;1.00;1.00;;;;;;;;;;5023040;28;58642;-69
2023/05/13 08:02:20;;;;;;;1.40;1.30;;;;;;;;;;5034067;28;58560;-72
2023/05/13 08:04:46;;;;;;;1.00;1.00;;;;;;;;;;5033737;28;58707;-71
2023/05/13 08:07:11;;;;;;;0.88;0.88;;;;;;;;;;5036873;28;58763;-71
2023/05/13 08:09:36;;;;;;;0.90;0.90;;;;;;;;;;5032777;28;58427;-71
2023/05/13 08:12:01;;;;;;;1.27;1.17;;;;;;;;;;5034244;28;58348;-72
2023/05/13 08:14:27;;;;;;;1.23;1.17;;;;;;;;;;5034037;28;58799;-71
2023/05/13 08:16:52;;;;;;;0.85;0.85;;;;;;;;;;5035157;28;58802;-67
2023/05/13 08:19:18;;;;;;;1.30;1.20;;;;;;;;;;5032680;28;59271;-72
2023/05/13 08:21:43;;;;;;;1.00;1.00;;;;;;;;;;5030792;28;60841;-71
2023/05/13 08:24:09;;;;;;;0.80;0.80;;;;;;;;;;5029700;28;58591;-69
2023/05/13 08:26:34;;;;;;;0.80;0.80;;;;;;;;;;5037700;28;58817;-71
2023/05/13 08:28:59;;;;;;;0.90;0.90;;;;;;;;;;5037626;28;59089;-71
2023/05/13 08:31:24;;;;;;;0.75;0.75;;;;;;;;;;5035091;28;58445;-72
2023/05/13 08:33:50;;;;;;;1.13;1.10;;;;;;;;;;5037426;28;58931;-71
2023/05/13 08:36:15;;;;;;;0.85;0.85;;;;;;;;;;5037400;28;58986;-72
2023/05/13 08:38:42;;;;;;;1.20;1.10;;;;;;;;;;5036982;28;58361;-70
2023/05/13 08:41:07;;;;;;;0.80;0.80;;;;;;;;;;5036843;28;62425;-70
2023/05/13 08:43:33;;;;;;;1.40;0.87;;;;;;;;;;5037034;28;58411;-71
2023/05/13 08:46:01;;;;;;;1.27;1.17;;;;;;;;;;5032706;28;58360;-71
2023/05/13 08:48:26;;;;;;;0.70;0.70;;;;;;;;;;5030395;28;58889;-71
2023/05/13 08:50:51;;;;;;;0.82;0.70;;;;;;;;;;5027945;28;58497;-71
2023/05/13 08:53:17;;;;;;;0.70;0.70;;;;;;;;;;5035192;28;58289;-69
2023/05/13 08:55:43;;;;;;;1.20;1.10;;;;;;;;;;5039473;28;58867;-72
2023/05/13 08:58:08;;;;;;;0.90;0.90;;;;;;;;;;5033655;28;58535;-67
2023/05/13 09:00:33;;;;;;;0.90;0.90;;;;;;;;;;5035909;28;58597;-69
2023/05/13 09:02:59;;;;;;;1.10;1.00;;;;;;;;;;5036377;28;58778;-71
2023/05/13 09:05:24;;;;;;;0.80;0.80;;;;;;;;;;5036331;28;58443;-71
2023/05/13 09:07:49;;;;;;;0.93;0.93;;;;;;;;;;5037284;28;59046;-68
2023/05/13 09:10:16;;;;;;;0.85;0.85;;;;;;;;;;5032838;28;60019;-71
2023/05/13 09:12:41;;;;;;;0.77;0.77;;;;;;;;;;5031377;28;58368;-72
2023/05/13 09:15:11;;;;;;;0.98;0.98;;;;;;;;;;5034751;28;58469;-72
2023/05/13 09:17:37;;;;;;;0.70;0.70;;;;;;;;;;5027936;28;58757;-71
2023/05/13 09:20:06;;;;;;;0.77;0.77;;;;;;;;;;5030397;28;58401;-69
2023/05/13 09:22:31;;;;;;;1.20;1.10;;;;;;;;;;5031421;28;59322;-68
2023/05/13 09:24:57;;;;;;;0.73;0.73;;;;;;;;;;5031864;28;58792;-67
2023/05/13 09:27:34;;;;;;;1.42;1.10;;;;;;;;;;5027556;28;58951;-69
2023/05/13 09:29:59;;;;;;;1.00;0.90;;;;;;;;;;5034232;28;58757;-69
2023/05/13 09:32:24;;;;;;;1.10;1.00;;;;;;;;;;5035241;28;58769;-69
2023/05/13 09:34:50;;;;;;;0.90;0.90;;;;;;;;;;5036265;28;58453;-68
2023/05/13 09:37:17;;;;;;;0.82;0.82;;;;;;;;;;5033051;28;58502;-68
2023/05/13 09:39:42;;;;;;;1.00;1.00;;;;;;;;;;5036106;28;59376;-68
2023/05/13 09:42:14;;;;;;;0.98;0.98;;;;;;;;;;5031432;28;58375;-68
2023/05/13 09:44:39;;;;;;;0.85;0.85;;;;;;;;;;5031610;28;58781;-68
2023/05/13 09:47:04;;;;;;;0.80;0.80;;;;;;;;;;5027293;28;58576;-68
2023/05/13 09:49:30;;;;;;;0.73;0.73;;;;;;;;;;5032264;28;58340;-67
2023/05/13 09:51:55;;;;;;;0.52;0.52;;;;;;;;;;5028000;28;58728;-69
2023/05/13 09:54:20;;;;;;;0.70;0.70;;;;;;;;;;5029635;28;59010;-70
2023/05/13 09:56:45;;;;;;;0.87;0.87;;;;;;;;;;5031503;28;59428;-70
2023/05/13 09:59:11;;;;;;;1.17;0.80;;;;;;;;;;5037051;28;58515;-70
2023/05/13 10:01:37;;;;;;;0.85;0.85;;;;;;;;;;5029391;28;58982;-70
2023/05/13 10:04:04;;;;;;;1.00;1.00;;;;;;;;;;5024464;28;62793;-70
2023/05/13 10:06:30;;;;;;;0.80;0.80;;;;;;;;;;5024072;28;59161;-65
2023/05/13 10:08:57;;;;;;;1.37;1.27;;;;;;;;;;5027376;28;58410;-70
2023/05/13 10:11:23;;;;;;;1.10;1.00;;;;;;;;;;5034632;28;58493;-71
2023/05/13 10:13:49;;;;;;;0.85;0.80;;;;;;;;;;5033311;28;58348;-71
2023/05/13 10:16:15;;;;;;;0.90;0.90;;;;;;;;;;5033667;28;58462;-70
2023/05/13 10:18:40;;;;;;;1.23;1.13;;;;;;;;;;5034470;28;58418;-69
2023/05/13 10:21:05;;;;;;;0.70;0.70;;;;;;;;;;5029496;28;58338;-70
2023/05/13 10:23:31;;;;;;;1.00;1.00;;;;;;;;;;5032811;28;58522;-71
2023/05/13 10:25:57;;;;;;;0.85;0.85;;;;;;;;;;5024093;28;58960;-70
2023/05/13 10:28:24;;;;;;;0.75;0.75;;;;;;;;;;5031869;28;58476;-71
2023/05/13 10:30:50;;;;;;;1.00;1.00;;;;;;;;;;5033113;28;58441;-69
2023/05/13 10:33:15;;;;;;;0.70;0.70;;;;;;;;;;5032654;28;59677;-67
2023/05/13 10:35:42;;;;;;;0.70;0.70;;;;;;;;;;5029471;28;58648;-70
2023/05/13 10:38:08;;;;;;;1.00;0.90;;;;;;;;;;5036653;28;58310;-70
2023/05/13 10:40:43;;;;;;;0.77;0.77;;;;;;;;;;5033524;28;58865;-70
2023/05/13 10:43:19;;;;;;;0.80;0.80;;;;;;;;;;5033603;28;58814;-70
2023/05/13 10:45:48;;;;;;;0.80;0.80;;;;;;;;;;5035113;28;58761;-71
2023/05/13 10:48:14;;;;;;;0.85;0.85;;;;;;;;;;5034590;28;58888;-69
2023/05/13 10:50:48;;;;;;;1.15;1.10;;;;;;;;;;5029218;28;58427;-69
2023/05/13 10:53:18;;;;;;;0.82;0.82;;;;;;;;;;5029585;28;61891;-70
2023/05/13 10:55:44;;;;;;;0.73;0.73;;;;;;;;;;5029410;28;58405;-68
2023/05/13 10:58:10;;;;;;;0.80;0.80;;;;;;;;;;5034433;28;58621;-70
2023/05/13 11:00:37;;;;;;;0.70;0.70;;;;;;;;;;5033074;28;59222;-70
2023/05/13 11:03:34;;;;;;;1.55;1.45;;;;;;;;;;5030630;28;58573;-70
2023/05/13 11:06:20;;;;;;;0.70;0.70;;;;;;;;;;5005410;28;59047;-70
2023/05/13 11:08:46;;;;;;;0.85;0.82;;;;;;;;;;5033119;28;59125;-68
2023/05/13 11:11:17;;;;;;;0.70;0.70;;;;;;;;;;5026211;28;58348;-69
2023/05/13 11:13:42;;;;;;;0.90;0.90;;;;;;;;;;5031502;28;58797;-70
2023/05/13 11:16:09;;;;;;;0.70;0.70;;;;;;;;;;5032760;28;59102;-70
2023/05/13 11:18:35;;;;;;;1.10;1.00;;;;;;;;;;5035748;28;58384;-70
2023/05/13 11:21:02;;;;;;;0.70;0.70;;;;;;;;;;5034175;28;59033;-70
2023/05/13 11:23:27;;;;;;;1.05;0.98;;;;;;;;;;5030112;28;58751;-68
2023/05/13 11:26:13;;;;;;;0.55;0.55;;;;;;;;;;5031625;28;58377;-66
2023/05/13 11:28:58;;;;;;;0.93;0.93;;;;;;;;;;5027433;28;58756;-67
2023/05/13 11:31:24;;;;;;;0.85;0.75;;;;;;;;;;5030118;28;58843;-69
2023/05/13 11:36:30;;;;;;;1.35;1.25;;;;;;;;;;5068755;22;58466;-71
2023/05/13 11:39:03;;;;;;;0.85;0.85;;;;;;;;;;5045017;28;58513;-66
2023/05/13 11:41:30;;;;;;;1.83;1.33;;;;;;;;;;5044811;28;58386;-71
2023/05/13 11:43:58;;;;;;;2.73;1.17;;;;;;;;;;5041248;28;58471;-67
2023/05/13 11:46:24;;;;;;;1.03;1.00;;;;;;;;;;5039752;28;58687;-65
2023/05/13 11:48:50;;;;;;;1.63;1.52;;;;;;;;;;5043240;28;57905;-71
2023/05/13 11:51:16;;;;;;;3.88;1.48;;;;;;;;;;5043348;28;58401;-70
2023/05/13 11:53:42;;;;;;;6.40;1.08;;;;;;;;;;5042750;28;58544;-62
2023/05/13 11:56:07;;;;;;;3.40;1.20;;;;;;;;;;5041910;28;59272;-62
2023/05/13 11:58:33;;;;;;;1.55;1.38;;;;;;;;;;5044320;27;58788;-65
2023/05/13 12:00:58;;;;;;;2.25;1.02;;;;;;;;;;5047721;28;58440;-69
2023/05/13 12:03:26;;;;;;;7.35;1.52;;;;;;;;;;5047879;28;58364;-70
2023/05/13 12:05:59;;;;;;;3.00;1.33;;;;;;;;;;5043743;27;58826;-64
2023/05/13 12:08:24;;;;;;;3.08;1.70;;;;;;;;;;5040863;28;59068;-70
2023/05/13 12:10:50;;;;;;;2.35;1.42;;;;;;;;;;5043941;28;58618;-69
2023/05/13 12:13:15;;;;;;;1.45;1.10;;;;;;;;;;5046046;28;58766;-64
2023/05/13 12:15:40;;;;;;;1.40;1.30;;;;;;;;;;5046626;28;58448;-70
2023/05/13 12:18:06;;;;;;;1.45;1.35;;;;;;;;;;5047154;28;58729;-70
2023/05/13 12:20:32;;;;;;;1.70;1.60;;;;;;;;;;5043846;28;58310;-69
2023/05/13 12:22:58;;;;;;;1.50;1.40;;;;;;;;;;5043212;28;60078;-69
2023/05/13 12:25:30;;;;;;;2.85;2.00;;;;;;;;;;5046249;28;58735;-69
2023/05/13 12:27:56;;;;;;;1.10;1.00;;;;;;;;;;5043829;28;57929;-70
2023/05/13 12:30:21;;;;;;;1.63;1.20;;;;;;;;;;5042946;28;59467;-69
2023/05/13 12:32:46;;;;;;;1.53;1.13;;;;;;;;;;5042288;28;58705;-64
2023/05/13 12:35:13;;;;;;;1.05;0.90;;;;;;;;;;5042234;28;58517;-69
2023/05/13 12:37:38;;;;;;;2.08;1.05;;;;;;;;;;5041653;28;58790;-70
2023/05/13 12:40:13;;;;;;;1.73;1.20;;;;;;;;;;5043140;27;59343;-67
2023/05/13 12:42:42;;;;;;;1.20;1.10;;;;;;;;;;5043668;28;58762;-70
2023/05/13 12:45:08;;;;;;;2.45;0.98;;;;;;;;;;5045891;28;58384;-70
2023/05/13 12:47:48;;;;;;;2.45;1.10;;;;;;;;;;5047185;28;58878;-69
2023/05/13 12:50:14;;;;;;;1.60;1.50;;;;;;;;;;5040616;28;62792;-70
2023/05/13 12:52:39;;;;;;;2.63;1.85;;;;;;;;;;5043835;28;58532;-70
2023/05/13 12:55:05;;;;;;;1.55;1.45;;;;;;;;;;5045210;28;58472;-68
2023/05/13 12:57:30;;;;;;;4.68;2.45;;;;;;;;;;5043677;28;58516;-70
2023/05/13 12:59:56;;;;;;;1.42;1.33;;;;;;;;;;5045019;28;58407;-70
2023/05/13 13:02:21;;;;;;;1.45;1.33;;;;;;;;;;5045299;28;58708;-67
2023/05/13 13:04:46;;;;;;;1.65;1.50;;;;;;;;;;5046240;28;58857;-70
2023/05/13 13:07:13;;;;;;;6.47;2.00;;;;;;;;;;5046712;28;58895;-69
2023/05/13 13:09:38;;;;;;;2.05;1.80;;;;;;;;;;5045601;28;58877;-70
2023/05/13 13:12:03;;;;;;;2.30;1.40;;;;;;;;;;5047700;28;58487;-70
2023/05/13 13:14:29;;;;;;;1.57;1.47;;;;;;;;;;5048562;28;59264;-71
2023/05/13 13:16:54;;;;;;;3.95;2.28;;;;;;;;;;5047274;28;58472;-70
2023/05/13 13:19:19;;;;;;;3.40;2.20;;;;;;;;;;5048254;28;58918;-69
2023/05/13 13:21:44;;;;;;;2.05;1.90;;;;;;;;;;5046196;28;58683;-71
2023/05/13 13:24:09;;;;;;;2.37;1.77;;;;;;;;;;5045855;28;58371;-70
2023/05/13 13:26:34;;;;;;;2.23;1.80;;;;;;;;;;5047275;28;58490;-68
2023/05/13 13:29:00;;;;;;;1.65;1.55;;;;;;;;;;5045691;28;58359;-70
2023/05/13 13:31:25;;;;;;;1.58;1.20;;;;;;;;;;5045746;28;58927;-70
2023/05/13 13:33:51;;;;;;;2.10;1.50;;;;;;;;;;5044000;28;58941;-69
2023/05/13 13:36:17;;;;;;;1.40;1.30;;;;;;;;;;5042473;28;58521;-68
2023/05/13 13:38:42;;;;;;;1.65;1.55;;;;;;;;;;5046120;28;58499;-65
2023/05/13 13:41:07;;;;;;;2.53;1.48;;;;;;;;;;5045719;28;58245;-70
2023/05/13 13:43:32;;;;;;;3.10;1.95;;;;;;;;;;5044173;28;58483;-64
2023/05/13 13:45:58;;;;;;;1.40;1.30;;;;;;;;;;5044623;28;58784;-69
2023/05/13 13:48:24;;;;;;;1.77;1.53;;;;;;;;;;5046011;28;58964;-70
2023/05/13 13:50:49;;;;;;;1.65;1.02;;;;;;;;;;5046153;28;58675;-70
2023/05/13 13:53:14;;;;;;;1.27;1.17;;;;;;;;;;5043395;28;58878;-68
2023/05/13 13:55:39;;;;;;;2.53;1.67;;;;;;;;;;5045500;28;59042;-70
2023/05/13 13:58:04;;;;;;;1.30;1.20;;;;;;;;;;5046010;28;58306;-70
2023/05/13 14:00:30;;;;;;;1.50;1.40;;;;;;;;;;5044099;28;58459;-69
2023/05/13 14:02:55;;;;;;;3.50;1.23;;;;;;;;;;5044340;28;58824;-70
2023/05/13 14:05:20;;;;;;;2.13;1.40;;;;;;;;;;5044699;28;60082;-68
2023/05/13 14:07:47;;;;;;;2.30;1.67;;;;;;;;;;5043351;27;58671;-70
2023/05/13 14:10:12;;;;;;;2.50;1.52;;;;;;;;;;5043779;28;58590;-67
2023/05/13 14:12:37;;;;;;;1.80;1.30;;;;;;;;;;5044341;28;58419;-68
2023/05/13 14:15:02;;;;;;;1.20;1.10;;;;;;;;;;5043592;28;58580;-67
2023/05/13 14:17:28;;;;;;;1.30;1.20;;;;;;;;;;5042875;28;58706;-69
2023/05/13 14:19:54;;;;;;;3.07;1.27;;;;;;;;;;5040998;28;58927;-68
2023/05/13 14:22:20;;;;;;;3.80;1.25;;;;;;;;;;5040795;28;58720;-71
2023/05/13 14:24:45;;;;;;;3.03;1.52;;;;;;;;;;5041286;28;59087;-67
2023/05/13 14:27:10;;;;;;;2.05;1.10;;;;;;;;;;5043652;28;58667;-70
2023/05/13 14:29:36;;;;;;;1.25;1.17;;;;;;;;;;5041618;28;58780;-67
2023/05/13 14:32:02;;;;;;;1.67;1.57;;;;;;;;;;5040526;28;58748;-70
2023/05/13 14:34:27;;;;;;;2.40;1.20;;;;;;;;;;5039420;27;58450;-71
2023/05/13 14:36:52;;;;;;;1.47;1.37;;;;;;;;;;5039488;27;58479;-69
2023/05/13 14:39:18;;;;;;;1.38;1.17;;;;;;;;;;5038189;28;58746;-64